sensor_id;sensor_type;location;lat;lon;timestamp;temperature;humidity
12578;DHT22;6354;51.026;8.968;2022-08-11T00:01:23;19.50;90.10
12578;DHT22;6354;51.026;8.968;2022-08-11T00:04:19;19.40;90.20
12578;DHT22;6354;51.026;8.968;2022-08-11T00:06:48;19.50;90.30
12578;DHT22;6354;51.026;8.968;2022-08-11T00:09:19;19.40;90.40
12578;DHT22;6354;51.026;8.968;2022-08-11T00:11:49;19.40;90.50
12578;DHT22;6354;51.026;8.968;2022-08-11T00:14:19;19.40;90.30
12578;DHT22;6354;51.026;8.968;2022-08-11T00:16:56;19.50;90.20
12578;DHT22;6354;51.026;8.968;2022-08-11T00:19:28;19.50;90.10
12578;DHT22;6354;51.026;8.968;2022-08-11T00:22:20;19.50;90.00
12578;DHT22;6354;51.026;8.968;2022-08-11T00:24:49;19.50;89.50
12578;DHT22;6354;51.026;8.968;2022-08-11T00:27:31;19.60;89.60
12578;DHT22;6354;51.026;8.968;2022-08-11T00:29:59;19.60;89.30
12578;DHT22;6354;51.026;8.968;2022-08-11T00:32:29;19.60;89.40
12578;DHT22;6354;51.026;8.968;2022-08-11T00:34:59;19.60;89.50
12578;DHT22;6354;51.026;8.968;2022-08-11T00:37:49;19.60;89.40
12578;DHT22;6354;51.026;8.968;2022-08-11T00:40:24;19.70;89.30
12578;DHT22;6354;51.026;8.968;2022-08-11T00:43:00;19.70;89.20
12578;DHT22;6354;51.026;8.968;2022-08-11T00:46:15;19.60;89.10
12578;DHT22;6354;51.026;8.968;2022-08-11T00:48:58;19.60;89.10
12578;DHT22;6354;51.026;8.968;2022-08-11T00:51:42;19.60;89.20
12578;DHT22;6354;51.026;8.968;2022-08-11T00:57:55;19.70;89.20
12578;DHT22;6354;51.026;8.968;2022-08-11T01:00:33;19.60;89.00
12578;DHT22;6354;51.026;8.968;2022-08-11T01:03:27;19.60;89.30
12578;DHT22;6354;51.026;8.968;2022-08-11T01:06:27;19.60;89.40
12578;DHT22;6354;51.026;8.968;2022-08-11T01:09:14;19.60;89.40
12578;DHT22;6354;51.026;8.968;2022-08-11T01:12:13;19.60;89.60
12578;DHT22;6354;51.026;8.968;2022-08-11T01:21:45;19.50;89.60
12578;DHT22;6354;51.026;8.968;2022-08-11T01:24:50;19.60;89.90
12578;DHT22;6354;51.026;8.968;2022-08-11T01:27:44;19.50;89.80
12578;DHT22;6354;51.026;8.968;2022-08-11T01:30:47;19.50;90.00
12578;DHT22;6354;51.026;8.968;2022-08-11T01:33:56;19.50;90.00
12578;DHT22;6354;51.026;8.968;2022-08-11T01:36:56;19.50;90.10
12578;DHT22;6354;51.026;8.968;2022-08-11T01:43:00;19.50;90.00
12578;DHT22;6354;51.026;8.968;2022-08-11T01:45:54;19.50;90.00
12578;DHT22;6354;51.026;8.968;2022-08-11T01:48:35;19.50;90.10
12578;DHT22;6354;51.026;8.968;2022-08-11T01:51:30;19.50;90.10
12578;DHT22;6354;51.026;8.968;2022-08-11T01:54:05;19.40;90.10
12578;DHT22;6354;51.026;8.968;2022-08-11T01:56:45;19.40;90.20
12578;DHT22;6354;51.026;8.968;2022-08-11T01:59:28;19.50;90.20
12578;DHT22;6354;51.026;8.968;2022-08-11T02:02:28;19.40;90.10
12578;DHT22;6354;51.026;8.968;2022-08-11T02:05:35;19.50;90.10
12578;DHT22;6354;51.026;8.968;2022-08-11T02:08:10;19.50;90.20
12578;DHT22;6354;51.026;8.968;2022-08-11T02:10:50;19.50;90.20
12578;DHT22;6354;51.026;8.968;2022-08-11T02:13:44;19.40;90.10
12578;DHT22;6354;51.026;8.968;2022-08-11T02:16:20;19.40;90.10
12578;DHT22;6354;51.026;8.968;2022-08-11T02:19:03;19.30;90.10
12578;DHT22;6354;51.026;8.968;2022-08-11T02:21:58;19.30;90.20
12578;DHT22;6354;51.026;8.968;2022-08-11T02:24:51;19.30;90.30
12578;DHT22;6354;51.026;8.968;2022-08-11T02:27:23;19.30;90.30
12578;DHT22;6354;51.026;8.968;2022-08-11T02:29:58;19.20;90.30
12578;DHT22;6354;51.026;8.968;2022-08-11T02:32:36;19.20;90.40
12578;DHT22;6354;51.026;8.968;2022-08-11T02:35:27;19.20;90.60
12578;DHT22;6354;51.026;8.968;2022-08-11T02:38:10;19.00;90.70
12578;DHT22;6354;51.026;8.968;2022-08-11T02:40:47;19.00;90.90
12578;DHT22;6354;51.026;8.968;2022-08-11T02:43:25;18.90;91.10
12578;DHT22;6354;51.026;8.968;2022-08-11T02:46:05;18.90;91.20
12578;DHT22;6354;51.026;8.968;2022-08-11T02:48:52;18.80;91.20
12578;DHT22;6354;51.026;8.968;2022-08-11T02:51:41;18.80;91.30
12578;DHT22;6354;51.026;8.968;2022-08-11T02:54:22;18.80;91.40
12578;DHT22;6354;51.026;8.968;2022-08-11T02:56:57;18.70;91.40
12578;DHT22;6354;51.026;8.968;2022-08-11T02:59:42;18.70;91.50
12578;DHT22;6354;51.026;8.968;2022-08-11T03:02:53;18.70;91.60
12578;DHT22;6354;51.026;8.968;2022-08-11T03:05:44;18.60;91.60
12578;DHT22;6354;51.026;8.968;2022-08-11T03:08:39;18.60;91.90
12578;DHT22;6354;51.026;8.968;2022-08-11T03:11:37;18.50;92.00
12578;DHT22;6354;51.026;8.968;2022-08-11T03:14:28;18.40;91.90
12578;DHT22;6354;51.026;8.968;2022-08-11T03:17:23;18.40;91.90
12578;DHT22;6354;51.026;8.968;2022-08-11T03:19:59;18.40;92.00
12578;DHT22;6354;51.026;8.968;2022-08-11T03:22:35;18.40;91.90
12578;DHT22;6354;51.026;8.968;2022-08-11T03:25:09;18.30;92.20
12578;DHT22;6354;51.026;8.968;2022-08-11T03:27:47;18.30;92.40
12578;DHT22;6354;51.026;8.968;2022-08-11T03:30:22;18.30;92.50
12578;DHT22;6354;51.026;8.968;2022-08-11T03:33:07;18.10;92.40
12578;DHT22;6354;51.026;8.968;2022-08-11T03:36:06;18.20;92.70
12578;DHT22;6354;51.026;8.968;2022-08-11T03:38:55;18.10;92.70
12578;DHT22;6354;51.026;8.968;2022-08-11T03:41:33;18.10;92.60
12578;DHT22;6354;51.026;8.968;2022-08-11T03:44:47;18.00;92.60
12578;DHT22;6354;51.026;8.968;2022-08-11T03:47:28;18.00;92.60
12578;DHT22;6354;51.026;8.968;2022-08-11T03:50:07;18.00;92.60
12578;DHT22;6354;51.026;8.968;2022-08-11T03:52:52;18.00;92.50
12578;DHT22;6354;51.026;8.968;2022-08-11T03:55:38;18.00;92.90
12578;DHT22;6354;51.026;8.968;2022-08-11T03:58:41;18.00;92.90
12578;DHT22;6354;51.026;8.968;2022-08-11T04:01:36;18.00;92.90
12578;DHT22;6354;51.026;8.968;2022-08-11T04:04:54;18.00;92.80
12578;DHT22;6354;51.026;8.968;2022-08-11T04:11:00;18.00;92.90
12578;DHT22;6354;51.026;8.968;2022-08-11T04:13:56;18.00;92.90
12578;DHT22;6354;51.026;8.968;2022-08-11T04:16:51;18.00;92.90
12578;DHT22;6354;51.026;8.968;2022-08-11T04:19:51;18.00;93.10
12578;DHT22;6354;51.026;8.968;2022-08-11T04:25:49;18.00;93.00
12578;DHT22;6354;51.026;8.968;2022-08-11T04:28:47;18.10;93.10
12578;DHT22;6354;51.026;8.968;2022-08-11T04:31:35;18.10;92.90
12578;DHT22;6354;51.026;8.968;2022-08-11T04:34:44;18.10;93.20
12578;DHT22;6354;51.026;8.968;2022-08-11T04:37:42;18.10;92.90
12578;DHT22;6354;51.026;8.968;2022-08-11T04:40:54;18.10;93.10
12578;DHT22;6354;51.026;8.968;2022-08-11T04:43:58;18.20;93.00
12578;DHT22;6354;51.026;8.968;2022-08-11T04:46:54;18.60;92.70
12578;DHT22;6354;51.026;8.968;2022-08-11T04:49:50;19.20;92.40
12578;DHT22;6354;51.026;8.968;2022-08-11T04:56:05;20.40;90.50
12578;DHT22;6354;51.026;8.968;2022-08-11T05:02:35;21.40;90.10
12578;DHT22;6354;51.026;8.968;2022-08-11T05:05:19;21.50;90.70
12578;DHT22;6354;51.026;8.968;2022-08-11T05:08:35;21.60;91.10
12578;DHT22;6354;51.026;8.968;2022-08-11T05:11:41;22.00;90.00
12578;DHT22;6354;51.026;8.968;2022-08-11T05:14:28;22.40;88.30
12578;DHT22;6354;51.026;8.968;2022-08-11T05:17:21;22.80;87.60
12578;DHT22;6354;51.026;8.968;2022-08-11T05:20:24;23.10;86.80
12578;DHT22;6354;51.026;8.968;2022-08-11T05:23:12;23.40;86.90
12578;DHT22;6354;51.026;8.968;2022-08-11T05:26:01;23.00;87.90
12578;DHT22;6354;51.026;8.968;2022-08-11T05:29:35;23.20;89.40
12578;DHT22;6354;51.026;8.968;2022-08-11T05:32:25;23.40;87.90
12578;DHT22;6354;51.026;8.968;2022-08-11T05:35:15;23.80;89.20
12578;DHT22;6354;51.026;8.968;2022-08-11T05:38:15;24.10;89.10
12578;DHT22;6354;51.026;8.968;2022-08-11T05:41:02;24.40;88.80
12578;DHT22;6354;51.026;8.968;2022-08-11T05:43:49;24.00;87.00
12578;DHT22;6354;51.026;8.968;2022-08-11T05:46:48;23.70;85.40
12578;DHT22;6354;51.026;8.968;2022-08-11T05:49:34;23.20;86.60
12578;DHT22;6354;51.026;8.968;2022-08-11T05:52:23;22.80;87.40
12578;DHT22;6354;51.026;8.968;2022-08-11T05:55:13;22.50;89.00
12578;DHT22;6354;51.026;8.968;2022-08-11T05:58:03;22.30;90.40
12578;DHT22;6354;51.026;8.968;2022-08-11T06:00:40;22.10;92.00
12578;DHT22;6354;51.026;8.968;2022-08-11T06:03:09;21.90;92.10
12578;DHT22;6354;51.026;8.968;2022-08-11T06:05:39;22.10;91.90
12578;DHT22;6354;51.026;8.968;2022-08-11T06:08:11;22.00;91.70
12578;DHT22;6354;51.026;8.968;2022-08-11T06:10:42;21.90;92.20
12578;DHT22;6354;51.026;8.968;2022-08-11T06:13:15;21.80;92.40
12578;DHT22;6354;51.026;8.968;2022-08-11T06:15:45;22.60;92.10
12578;DHT22;6354;51.026;8.968;2022-08-11T06:18:14;22.90;91.50
12578;DHT22;6354;51.026;8.968;2022-08-11T06:20:46;22.70;91.80
12578;DHT22;6354;51.026;8.968;2022-08-11T06:23:16;23.00;92.00
12578;DHT22;6354;51.026;8.968;2022-08-11T06:25:45;23.60;91.80
12578;DHT22;6354;51.026;8.968;2022-08-11T06:28:15;24.30;90.60
12578;DHT22;6354;51.026;8.968;2022-08-11T06:30:48;24.80;90.60
12578;DHT22;6354;51.026;8.968;2022-08-11T06:33:20;25.50;90.20
12578;DHT22;6354;51.026;8.968;2022-08-11T06:35:56;25.90;90.00
12578;DHT22;6354;51.026;8.968;2022-08-11T06:38:38;26.20;87.60
12578;DHT22;6354;51.026;8.968;2022-08-11T06:41:17;26.50;86.40
12578;DHT22;6354;51.026;8.968;2022-08-11T06:44:14;26.80;87.00
12578;DHT22;6354;51.026;8.968;2022-08-11T06:46:43;27.10;87.10
12578;DHT22;6354;51.026;8.968;2022-08-11T06:49:14;27.40;86.10
12578;DHT22;6354;51.026;8.968;2022-08-11T06:52:02;27.70;86.30
12578;DHT22;6354;51.026;8.968;2022-08-11T06:54:33;27.80;83.70
12578;DHT22;6354;51.026;8.968;2022-08-11T06:57:03;27.90;83.30
12578;DHT22;6354;51.026;8.968;2022-08-11T06:59:57;28.20;82.80
12578;DHT22;6354;51.026;8.968;2022-08-11T07:02:47;28.40;81.60
12578;DHT22;6354;51.026;8.968;2022-08-11T07:05:23;28.60;81.60
12578;DHT22;6354;51.026;8.968;2022-08-11T07:11:26;28.90;78.60
12578;DHT22;6354;51.026;8.968;2022-08-11T07:14:30;29.20;78.00
12578;DHT22;6354;51.026;8.968;2022-08-11T07:17:20;29.40;78.20
12578;DHT22;6354;51.026;8.968;2022-08-11T07:19:52;29.50;77.90
12578;DHT22;6354;51.026;8.968;2022-08-11T07:22:38;29.60;76.80
12578;DHT22;6354;51.026;8.968;2022-08-11T07:25:32;29.70;75.30
12578;DHT22;6354;51.026;8.968;2022-08-11T07:28:24;29.70;74.30
12578;DHT22;6354;51.026;8.968;2022-08-11T07:31:13;29.70;74.30
12578;DHT22;6354;51.026;8.968;2022-08-11T07:33:47;29.60;75.80
12578;DHT22;6354;51.026;8.968;2022-08-11T07:36:37;29.80;73.60
12578;DHT22;6354;51.026;8.968;2022-08-11T07:39:12;30.00;76.10
12578;DHT22;6354;51.026;8.968;2022-08-11T07:41:42;30.20;75.30
12578;DHT22;6354;51.026;8.968;2022-08-11T07:44:11;30.30;74.30
12578;DHT22;6354;51.026;8.968;2022-08-11T07:46:48;30.40;76.50
12578;DHT22;6354;51.026;8.968;2022-08-11T07:49:38;30.40;73.90
12578;DHT22;6354;51.026;8.968;2022-08-11T07:52:27;30.40;74.00
12578;DHT22;6354;51.026;8.968;2022-08-11T07:55:01;30.60;73.30
12578;DHT22;6354;51.026;8.968;2022-08-11T07:57:42;30.70;71.10
12578;DHT22;6354;51.026;8.968;2022-08-11T08:00:47;30.80;71.00
12578;DHT22;6354;51.026;8.968;2022-08-11T08:03:37;30.60;71.20
12578;DHT22;6354;51.026;8.968;2022-08-11T08:06:25;30.70;71.40
12578;DHT22;6354;51.026;8.968;2022-08-11T08:09:13;30.70;70.50
12578;DHT22;6354;51.026;8.968;2022-08-11T08:12:02;30.50;71.10
12578;DHT22;6354;51.026;8.968;2022-08-11T08:14:48;30.00;71.50
12578;DHT22;6354;51.026;8.968;2022-08-11T08:17:35;30.00;73.00
12578;DHT22;6354;51.026;8.968;2022-08-11T08:20:44;29.80;72.50
12578;DHT22;6354;51.026;8.968;2022-08-11T08:23:14;29.90;70.80
12578;DHT22;6354;51.026;8.968;2022-08-11T08:25:43;29.70;69.30
12578;DHT22;6354;51.026;8.968;2022-08-11T08:28:15;29.60;70.40
12578;DHT22;6354;51.026;8.968;2022-08-11T08:30:44;29.50;70.50
12578;DHT22;6354;51.026;8.968;2022-08-11T08:33:19;29.50;69.20
12578;DHT22;6354;51.026;8.968;2022-08-11T08:35:51;29.40;68.40
12578;DHT22;6354;51.026;8.968;2022-08-11T08:38:41;29.40;67.40
12578;DHT22;6354;51.026;8.968;2022-08-11T08:41:10;29.30;66.20
12578;DHT22;6354;51.026;8.968;2022-08-11T08:43:43;29.40;68.60
12578;DHT22;6354;51.026;8.968;2022-08-11T08:46:17;29.40;67.90
12578;DHT22;6354;51.026;8.968;2022-08-11T08:48:46;29.40;69.20
12578;DHT22;6354;51.026;8.968;2022-08-11T08:51:16;29.40;68.40
12578;DHT22;6354;51.026;8.968;2022-08-11T08:54:29;29.30;67.90
12578;DHT22;6354;51.026;8.968;2022-08-11T08:57:00;29.30;69.50
12578;DHT22;6354;51.026;8.968;2022-08-11T08:59:32;29.30;66.50
12578;DHT22;6354;51.026;8.968;2022-08-11T09:02:15;29.00;66.20
12578;DHT22;6354;51.026;8.968;2022-08-11T09:05:01;28.80;63.10
12578;DHT22;6354;51.026;8.968;2022-08-11T09:07:30;28.80;63.60
12578;DHT22;6354;51.026;8.968;2022-08-11T09:10:08;28.70;64.80
12578;DHT22;6354;51.026;8.968;2022-08-11T09:12:39;28.80;66.70
12578;DHT22;6354;51.026;8.968;2022-08-11T09:15:10;28.90;64.70
12578;DHT22;6354;51.026;8.968;2022-08-11T09:17:41;29.00;64.80
12578;DHT22;6354;51.026;8.968;2022-08-11T09:20:12;28.90;65.50
12578;DHT22;6354;51.026;8.968;2022-08-11T09:22:42;28.80;64.30
12578;DHT22;6354;51.026;8.968;2022-08-11T09:25:52;28.70;64.00
12578;DHT22;6354;51.026;8.968;2022-08-11T09:28:42;28.60;63.40
12578;DHT22;6354;51.026;8.968;2022-08-11T09:31:11;28.60;62.70
12578;DHT22;6354;51.026;8.968;2022-08-11T09:33:42;28.70;65.50
12578;DHT22;6354;51.026;8.968;2022-08-11T09:36:12;28.60;63.10
12578;DHT22;6354;51.026;8.968;2022-08-11T09:38:59;28.70;65.00
12578;DHT22;6354;51.026;8.968;2022-08-11T09:41:49;28.70;62.10
12578;DHT22;6354;51.026;8.968;2022-08-11T09:44:30;28.60;61.20
12578;DHT22;6354;51.026;8.968;2022-08-11T09:47:19;28.50;61.00
12578;DHT22;6354;51.026;8.968;2022-08-11T09:49:52;28.60;61.80
12578;DHT22;6354;51.026;8.968;2022-08-11T09:52:22;28.60;61.60
12578;DHT22;6354;51.026;8.968;2022-08-11T09:54:52;28.60;59.90
12578;DHT22;6354;51.026;8.968;2022-08-11T09:57:23;28.50;60.00
12578;DHT22;6354;51.026;8.968;2022-08-11T10:00:11;28.60;63.20
12578;DHT22;6354;51.026;8.968;2022-08-11T10:02:42;28.60;60.80
12578;DHT22;6354;51.026;8.968;2022-08-11T10:05:14;28.40;59.60
12578;DHT22;6354;51.026;8.968;2022-08-11T10:08:02;28.40;60.10
12578;DHT22;6354;51.026;8.968;2022-08-11T10:10:34;28.30;59.60
12578;DHT22;6354;51.026;8.968;2022-08-11T10:13:06;28.30;59.30
12578;DHT22;6354;51.026;8.968;2022-08-11T10:15:57;28.30;60.60
12578;DHT22;6354;51.026;8.968;2022-08-11T10:18:41;28.40;61.20
12578;DHT22;6354;51.026;8.968;2022-08-11T10:21:23;28.30;59.50
12578;DHT22;6354;51.026;8.968;2022-08-11T10:23:56;28.20;59.00
12578;DHT22;6354;51.026;8.968;2022-08-11T10:26:43;28.10;58.50
12578;DHT22;6354;51.026;8.968;2022-08-11T10:29:30;28.10;59.40
12578;DHT22;6354;51.026;8.968;2022-08-11T10:32:19;28.10;58.90
12578;DHT22;6354;51.026;8.968;2022-08-11T10:35:25;28.20;58.90
12578;DHT22;6354;51.026;8.968;2022-08-11T10:37:55;28.20;59.80
12578;DHT22;6354;51.026;8.968;2022-08-11T10:40:37;28.30;62.10
12578;DHT22;6354;51.026;8.968;2022-08-11T10:43:07;28.30;64.50
12578;DHT22;6354;51.026;8.968;2022-08-11T10:45:44;28.40;61.20
12578;DHT22;6354;51.026;8.968;2022-08-11T10:48:35;28.30;60.10
12578;DHT22;6354;51.026;8.968;2022-08-11T10:51:04;28.20;63.00
12578;DHT22;6354;51.026;8.968;2022-08-11T10:53:42;28.30;62.90
12578;DHT22;6354;51.026;8.968;2022-08-11T10:56:29;28.30;63.20
12578;DHT22;6354;51.026;8.968;2022-08-11T10:59:17;28.40;63.20
12578;DHT22;6354;51.026;8.968;2022-08-11T11:01:46;28.40;61.90
12578;DHT22;6354;51.026;8.968;2022-08-11T11:04:16;28.40;62.60
12578;DHT22;6354;51.026;8.968;2022-08-11T11:06:51;28.30;63.70
12578;DHT22;6354;51.026;8.968;2022-08-11T11:09:24;28.40;63.60
12578;DHT22;6354;51.026;8.968;2022-08-11T11:11:58;28.30;63.10
12578;DHT22;6354;51.026;8.968;2022-08-11T11:14:44;28.30;64.90
12578;DHT22;6354;51.026;8.968;2022-08-11T11:17:37;28.40;64.20
12578;DHT22;6354;51.026;8.968;2022-08-11T11:20:34;28.50;61.20
12578;DHT22;6354;51.026;8.968;2022-08-11T11:23:09;28.50;63.40
12578;DHT22;6354;51.026;8.968;2022-08-11T11:26:13;28.50;62.00
12578;DHT22;6354;51.026;8.968;2022-08-11T11:29:14;28.50;61.30
12578;DHT22;6354;51.026;8.968;2022-08-11T11:31:54;28.50;61.70
12578;DHT22;6354;51.026;8.968;2022-08-11T11:34:41;28.40;61.30
12578;DHT22;6354;51.026;8.968;2022-08-11T11:37:20;28.60;61.70
12578;DHT22;6354;51.026;8.968;2022-08-11T11:39:49;28.60;60.80
12578;DHT22;6354;51.026;8.968;2022-08-11T11:42:18;28.60;59.80
12578;DHT22;6354;51.026;8.968;2022-08-11T11:44:47;28.60;59.80
12578;DHT22;6354;51.026;8.968;2022-08-11T11:47:21;28.60;59.70
12578;DHT22;6354;51.026;8.968;2022-08-11T11:49:52;28.60;62.60
12578;DHT22;6354;51.026;8.968;2022-08-11T11:52:21;28.60;61.40
12578;DHT22;6354;51.026;8.968;2022-08-11T11:54:52;28.70;61.10
12578;DHT22;6354;51.026;8.968;2022-08-11T11:57:22;28.70;60.30
12578;DHT22;6354;51.026;8.968;2022-08-11T12:00:25;28.80;60.60
12578;DHT22;6354;51.026;8.968;2022-08-11T12:03:11;28.50;60.70
12578;DHT22;6354;51.026;8.968;2022-08-11T12:05:42;28.50;61.70
12578;DHT22;6354;51.026;8.968;2022-08-11T12:08:11;28.60;63.50
12578;DHT22;6354;51.026;8.968;2022-08-11T12:10:44;28.70;63.00
12578;DHT22;6354;51.026;8.968;2022-08-11T12:13:13;28.70;61.60
12578;DHT22;6354;51.026;8.968;2022-08-11T12:16:00;28.70;62.80
12578;DHT22;6354;51.026;8.968;2022-08-11T12:18:51;28.70;61.90
12578;DHT22;6354;51.026;8.968;2022-08-11T12:21:22;28.80;61.00
12578;DHT22;6354;51.026;8.968;2022-08-11T12:23:50;28.70;60.50
12578;DHT22;6354;51.026;8.968;2022-08-11T12:26:37;28.60;59.90
12578;DHT22;6354;51.026;8.968;2022-08-11T12:29:44;28.60;59.30
12578;DHT22;6354;51.026;8.968;2022-08-11T12:32:21;28.60;59.50
12578;DHT22;6354;51.026;8.968;2022-08-11T12:34:50;28.70;58.50
12578;DHT22;6354;51.026;8.968;2022-08-11T12:37:25;28.70;58.40
12578;DHT22;6354;51.026;8.968;2022-08-11T12:40:02;28.60;60.10
12578;DHT22;6354;51.026;8.968;2022-08-11T12:43:14;28.70;58.80
12578;DHT22;6354;51.026;8.968;2022-08-11T12:46:07;28.70;59.00
12578;DHT22;6354;51.026;8.968;2022-08-11T12:48:38;28.70;59.30
12578;DHT22;6354;51.026;8.968;2022-08-11T12:51:32;28.70;59.00
12578;DHT22;6354;51.026;8.968;2022-08-11T12:54:47;28.70;58.70
12578;DHT22;6354;51.026;8.968;2022-08-11T12:57:22;28.70;59.30
12578;DHT22;6354;51.026;8.968;2022-08-11T13:00:10;28.60;58.60
12578;DHT22;6354;51.026;8.968;2022-08-11T13:02:56;28.60;58.70
12578;DHT22;6354;51.026;8.968;2022-08-11T13:05:43;28.60;59.80
12578;DHT22;6354;51.026;8.968;2022-08-11T13:08:11;28.70;59.90
12578;DHT22;6354;51.026;8.968;2022-08-11T13:10:43;28.70;59.70
12578;DHT22;6354;51.026;8.968;2022-08-11T13:13:30;28.80;59.70
12578;DHT22;6354;51.026;8.968;2022-08-11T13:16:18;28.90;58.30
12578;DHT22;6354;51.026;8.968;2022-08-11T13:18:49;28.80;58.60
12578;DHT22;6354;51.026;8.968;2022-08-11T13:21:20;28.80;58.70
12578;DHT22;6354;51.026;8.968;2022-08-11T13:23:51;28.70;59.20
12578;DHT22;6354;51.026;8.968;2022-08-11T13:26:32;28.70;59.70
12578;DHT22;6354;51.026;8.968;2022-08-11T13:29:18;28.80;58.90
12578;DHT22;6354;51.026;8.968;2022-08-11T13:31:47;28.90;58.70
12578;DHT22;6354;51.026;8.968;2022-08-11T13:34:16;28.80;59.40
12578;DHT22;6354;51.026;8.968;2022-08-11T13:36:47;28.80;59.50
12578;DHT22;6354;51.026;8.968;2022-08-11T13:39:16;28.80;59.60
12578;DHT22;6354;51.026;8.968;2022-08-11T13:41:46;28.80;60.30
12578;DHT22;6354;51.026;8.968;2022-08-11T13:44:16;28.80;59.20
12578;DHT22;6354;51.026;8.968;2022-08-11T13:46:51;28.80;58.50
12578;DHT22;6354;51.026;8.968;2022-08-11T13:49:21;28.80;58.90
12578;DHT22;6354;51.026;8.968;2022-08-11T13:51:51;28.70;59.10
12578;DHT22;6354;51.026;8.968;2022-08-11T13:54:22;28.70;59.90
12578;DHT22;6354;51.026;8.968;2022-08-11T13:56:55;28.80;58.80
12578;DHT22;6354;51.026;8.968;2022-08-11T13:59:24;28.80;58.30
12578;DHT22;6354;51.026;8.968;2022-08-11T14:01:58;28.80;57.60
12578;DHT22;6354;51.026;8.968;2022-08-11T14:04:53;28.80;59.40
12578;DHT22;6354;51.026;8.968;2022-08-11T14:07:23;28.80;58.20
12578;DHT22;6354;51.026;8.968;2022-08-11T14:09:56;28.70;58.70
12578;DHT22;6354;51.026;8.968;2022-08-11T14:12:28;28.70;59.80
12578;DHT22;6354;51.026;8.968;2022-08-11T14:15:19;28.80;59.00
12578;DHT22;6354;51.026;8.968;2022-08-11T14:17:51;28.80;58.20
12578;DHT22;6354;51.026;8.968;2022-08-11T14:20:21;28.70;57.90
12578;DHT22;6354;51.026;8.968;2022-08-11T14:23:06;28.60;58.00
12578;DHT22;6354;51.026;8.968;2022-08-11T14:25:34;28.70;59.40
12578;DHT22;6354;51.026;8.968;2022-08-11T14:28:23;28.70;57.70
12578;DHT22;6354;51.026;8.968;2022-08-11T14:31:02;28.70;57.90
12578;DHT22;6354;51.026;8.968;2022-08-11T14:33:31;28.60;58.40
12578;DHT22;6354;51.026;8.968;2022-08-11T14:36:22;28.60;58.60
12578;DHT22;6354;51.026;8.968;2022-08-11T14:38:51;28.70;58.30
12578;DHT22;6354;51.026;8.968;2022-08-11T14:41:22;28.70;57.30
12578;DHT22;6354;51.026;8.968;2022-08-11T14:44:35;28.70;57.40
12578;DHT22;6354;51.026;8.968;2022-08-11T14:47:22;28.60;57.20
12578;DHT22;6354;51.026;8.968;2022-08-11T14:49:54;28.60;57.30
12578;DHT22;6354;51.026;8.968;2022-08-11T14:52:36;28.60;57.60
12578;DHT22;6354;51.026;8.968;2022-08-11T14:55:07;28.70;57.80
12578;DHT22;6354;51.026;8.968;2022-08-11T14:57:54;28.70;56.70
12578;DHT22;6354;51.026;8.968;2022-08-11T15:00:24;28.70;56.90
12578;DHT22;6354;51.026;8.968;2022-08-11T15:02:54;28.60;57.30
12578;DHT22;6354;51.026;8.968;2022-08-11T15:05:39;28.70;56.00
12578;DHT22;6354;51.026;8.968;2022-08-11T15:08:25;28.80;56.70
12578;DHT22;6354;51.026;8.968;2022-08-11T15:11:09;28.70;55.70
12578;DHT22;6354;51.026;8.968;2022-08-11T15:13:59;28.60;56.30
12578;DHT22;6354;51.026;8.968;2022-08-11T15:16:29;28.60;57.80
12578;DHT22;6354;51.026;8.968;2022-08-11T15:19:16;28.70;58.20
12578;DHT22;6354;51.026;8.968;2022-08-11T15:21:47;28.80;57.10
12578;DHT22;6354;51.026;8.968;2022-08-11T15:24:33;28.70;57.80
12578;DHT22;6354;51.026;8.968;2022-08-11T15:27:04;28.70;58.10
12578;DHT22;6354;51.026;8.968;2022-08-11T15:29:52;28.60;57.70
12578;DHT22;6354;51.026;8.968;2022-08-11T15:33:02;28.60;57.80
12578;DHT22;6354;51.026;8.968;2022-08-11T15:35:50;28.60;58.40
12578;DHT22;6354;51.026;8.968;2022-08-11T15:38:42;28.60;58.30
12578;DHT22;6354;51.026;8.968;2022-08-11T15:41:14;28.50;58.40
12578;DHT22;6354;51.026;8.968;2022-08-11T15:44:05;28.50;58.60
12578;DHT22;6354;51.026;8.968;2022-08-11T15:47:14;28.50;58.00
12578;DHT22;6354;51.026;8.968;2022-08-11T15:49:45;28.40;57.80
12578;DHT22;6354;51.026;8.968;2022-08-11T15:52:45;28.40;58.20
12578;DHT22;6354;51.026;8.968;2022-08-11T15:55:14;28.30;58.50
12578;DHT22;6354;51.026;8.968;2022-08-11T15:57:44;28.30;59.40
12578;DHT22;6354;51.026;8.968;2022-08-11T16:00:48;28.30;58.60
12578;DHT22;6354;51.026;8.968;2022-08-11T16:03:41;28.30;59.40
12578;DHT22;6354;51.026;8.968;2022-08-11T16:06:38;28.40;59.00
12578;DHT22;6354;51.026;8.968;2022-08-11T16:09:16;28.30;58.20
12578;DHT22;6354;51.026;8.968;2022-08-11T16:11:46;28.20;57.90
12578;DHT22;6354;51.026;8.968;2022-08-11T16:14:15;28.10;58.40
12578;DHT22;6354;51.026;8.968;2022-08-11T16:17:03;28.10;59.00
12578;DHT22;6354;51.026;8.968;2022-08-11T16:19:33;28.10;59.40
12578;DHT22;6354;51.026;8.968;2022-08-11T16:22:08;28.20;59.40
12578;DHT22;6354;51.026;8.968;2022-08-11T16:24:40;28.20;59.40
12578;DHT22;6354;51.026;8.968;2022-08-11T16:27:32;28.10;59.60
12578;DHT22;6354;51.026;8.968;2022-08-11T16:30:03;28.10;59.70
12578;DHT22;6354;51.026;8.968;2022-08-11T16:32:33;28.10;59.40
12578;DHT22;6354;51.026;8.968;2022-08-11T16:35:04;28.10;59.00
12578;DHT22;6354;51.026;8.968;2022-08-11T16:37:53;27.90;59.30
12578;DHT22;6354;51.026;8.968;2022-08-11T16:40:40;27.90;59.30
12578;DHT22;6354;51.026;8.968;2022-08-11T16:43:14;28.00;59.20
12578;DHT22;6354;51.026;8.968;2022-08-11T16:46:01;27.90;59.40
12578;DHT22;6354;51.026;8.968;2022-08-11T16:49:01;27.90;58.90
12578;DHT22;6354;51.026;8.968;2022-08-11T16:51:31;27.90;59.20
12578;DHT22;6354;51.026;8.968;2022-08-11T16:54:00;27.80;58.90
12578;DHT22;6354;51.026;8.968;2022-08-11T16:56:35;27.80;59.20
12578;DHT22;6354;51.026;8.968;2022-08-11T16:59:07;27.80;59.40
12578;DHT22;6354;51.026;8.968;2022-08-11T17:01:44;27.80;59.00
12578;DHT22;6354;51.026;8.968;2022-08-11T17:04:19;27.70;59.40
12578;DHT22;6354;51.026;8.968;2022-08-11T17:07:08;27.60;59.70
12578;DHT22;6354;51.026;8.968;2022-08-11T17:10:18;27.60;60.00
12578;DHT22;6354;51.026;8.968;2022-08-11T17:13:22;27.50;59.70
12578;DHT22;6354;51.026;8.968;2022-08-11T17:15:55;27.50;59.70
12578;DHT22;6354;51.026;8.968;2022-08-11T17:18:49;27.40;59.70
12578;DHT22;6354;51.026;8.968;2022-08-11T17:21:20;27.40;60.00
12578;DHT22;6354;51.026;8.968;2022-08-11T17:23:52;27.30;60.40
12578;DHT22;6354;51.026;8.968;2022-08-11T17:26:26;27.30;60.60
12578;DHT22;6354;51.026;8.968;2022-08-11T17:29:17;27.30;60.50
12578;DHT22;6354;51.026;8.968;2022-08-11T17:31:46;27.20;60.80
12578;DHT22;6354;51.026;8.968;2022-08-11T17:34:42;27.20;60.50
12578;DHT22;6354;51.026;8.968;2022-08-11T17:37:30;27.10;61.10
12578;DHT22;6354;51.026;8.968;2022-08-11T17:40:00;27.00;60.50
12578;DHT22;6354;51.026;8.968;2022-08-11T17:42:31;27.00;60.80
12578;DHT22;6354;51.026;8.968;2022-08-11T17:45:18;26.90;60.90
12578;DHT22;6354;51.026;8.968;2022-08-11T17:48:05;26.90;60.60
12578;DHT22;6354;51.026;8.968;2022-08-11T17:50:52;26.90;61.10
12578;DHT22;6354;51.026;8.968;2022-08-11T17:53:21;26.80;61.60